Time;durP1;ratioP1;P1;durP2;ratioP2;P2;SDS_P1;SDS_P2;PMS_P1;PMS_P2;Temp;Humidity;BMP_temperature;BMP_pressure;BME280_temperature;BME280_humidity;BME280_pressure;Samples;Min_cycle;Max_cycle;Signal;HPM_P1;HPM_P2
2022/08/20 00:00:31;;;;;;;8.05;4.80;;;;;;;19.47;100.00;96512.84;4967909;28;20052;-73
2022/08/20 00:02:59;;;;;;;7.90;4.68;;;;;;;19.67;100.00;96520.56;4968560;28;20050;-73
2022/08/20 00:05:32;;;;;;;8.60;4.82;;;;;;;19.64;100.00;96513.03;4966398;28;20053;-74
2022/08/20 00:07:58;;;;;;;9.05;4.50;;;;;;;19.65;100.00;96509.22;4967299;28;20152;-74
2022/08/20 00:10:27;;;;;;;8.85;4.63;;;;;;;19.46;100.00;96514.75;4968845;28;20145;-73
2022/08/20 00:12:53;;;;;;;9.73;4.90;;;;;;;19.55;100.00;96514.84;4967009;28;20378;-73
2022/08/20 00:15:23;;;;;;;9.10;5.15;;;;;;;19.58;100.00;96514.25;4968363;28;20050;-73
2022/08/20 00:17:50;;;;;;;9.07;5.60;;;;;;;19.66;100.00;96510.03;4982446;28;20766;-74
2022/08/20 00:20:18;;;;;;;9.93;5.40;;;;;;;19.43;100.00;96511.84;4969396;28;20031;-73
2022/08/20 00:22:44;;;;;;;7.55;5.25;;;;;;;19.17;100.00;96520.50;4969071;28;20513;-73
2022/08/20 00:25:10;;;;;;;8.18;5.38;;;;;;;19.12;100.00;96526.03;4967260;28;20038;-73
2022/08/20 00:27:36;;;;;;;8.25;5.28;;;;;;;19.40;100.00;96524.13;4967683;28;20437;-73
2022/08/20 00:30:05;;;;;;;7.85;5.07;;;;;;;19.51;100.00;96524.69;4967472;28;20686;-73
2022/08/20 00:32:30;;;;;;;9.40;5.22;;;;;;;19.57;100.00;96520.78;4969487;28;20054;-74
2022/08/20 00:34:56;;;;;;;9.45;4.85;;;;;;;19.72;100.00;96525.91;4968852;28;20030;-73
2022/08/20 00:37:21;;;;;;;11.10;4.85;;;;;;;19.81;100.00;96528.69;4968001;28;20050;-74
2022/08/20 00:39:47;;;;;;;9.32;5.53;;;;;;;19.79;100.00;96528.19;4967150;28;20113;-73
2022/08/20 00:42:13;;;;;;;8.02;5.25;;;;;;;19.80;100.00;96523.56;4966942;28;20034;-74
2022/08/20 00:44:44;;;;;;;8.52;6.43;;;;;;;19.73;100.00;96530.22;4967434;28;20042;-73
2022/08/20 00:47:09;;;;;;;12.68;7.72;;;;;;;19.67;100.00;96533.34;4967087;28;20113;-73
2022/08/20 00:49:35;;;;;;;10.68;7.63;;;;;;;19.66;100.00;96529.81;4967766;28;20405;-73
2022/08/20 00:52:10;;;;;;;12.00;7.22;;;;;;;19.72;100.00;96525.91;4966918;28;20034;-74
2022/08/20 00:54:48;;;;;;;9.25;6.47;;;;;;;19.75;100.00;96530.69;4984648;28;20046;-74
2022/08/20 00:57:19;;;;;;;13.15;8.00;;;;;;;19.74;100.00;96533.72;4966435;28;20073;-74
2022/08/20 00:59:45;;;;;;;11.15;8.02;;;;;;;19.65;100.00;96533.66;4967765;28;20505;-74
2022/08/20 01:02:13;;;;;;;12.10;8.68;;;;;;;19.61;100.00;96529.13;4966240;28;20129;-74
2022/08/20 01:04:39;;;;;;;14.73;9.05;;;;;;;19.60;100.00;96522.88;4967432;28;20061;-74
2022/08/20 01:07:06;;;;;;;14.25;8.85;;;;;;;19.64;100.00;96529.34;4965575;28;20043;-74
2022/08/20 01:09:34;;;;;;;13.23;9.38;;;;;;;19.62;100.00;96533.47;4966904;28;20490;-74
2022/08/20 01:12:01;;;;;;;11.20;8.02;;;;;;;19.61;100.00;96535.38;4965365;28;20643;-73
2022/08/20 01:14:35;;;;;;;13.13;8.32;;;;;;;19.61;100.00;96535.38;4966981;28;20039;-74
2022/08/20 01:17:07;;;;;;;13.93;8.82;;;;;;;19.57;100.00;96528.13;4966688;28;20270;-73
2022/08/20 01:19:39;;;;;;;12.15;9.00;;;;;;;19.53;100.00;96532.53;4965938;28;20112;-74
2022/08/20 01:25:03;;;;;;;13.48;8.52;;;;;;;19.49;100.00;96535.06;4968165;28;20038;-74
2022/08/20 01:27:30;;;;;;;12.13;8.60;;;;;;;19.43;100.00;96537.06;4965805;28;20081;-74
2022/08/20 01:29:57;;;;;;;12.07;9.40;;;;;;;19.43;100.00;96539.78;4967679;28;20045;-74
2022/08/20 01:32:23;;;;;;;15.77;8.90;;;;;;;19.45;100.00;96537.59;4966090;28;21424;-74
2022/08/20 01:34:48;;;;;;;14.77;9.55;;;;;;;19.46;100.00;96535.66;4966929;28;20050;-74
2022/08/20 01:37:14;;;;;;;12.48;8.98;;;;;;;19.46;100.00;96535.66;4968262;28;20060;-74
2022/08/20 01:39:39;;;;;;;13.60;9.52;;;;;;;19.47;100.00;96531.84;4967124;28;20133;-74
2022/08/20 01:42:17;;;;;;;11.85;9.02;;;;;;;19.46;100.00;96536.47;4966246;28;20125;-74
2022/08/20 01:44:45;;;;;;;13.55;9.80;;;;;;;19.49;100.00;96530.44;4967019;28;20041;-74
2022/08/20 01:47:16;;;;;;;13.65;9.27;;;;;;;19.46;100.00;96527.53;4967378;28;20039;-74
2022/08/20 01:49:49;;;;;;;12.70;8.93;;;;;;;19.42;100.00;96530.03;4967494;28;20202;-74
2022/08/20 01:52:29;;;;;;;13.80;9.70;;;;;;;19.38;100.00;96526.34;4970890;28;20034;-74
2022/08/20 01:54:55;;;;;;;11.20;9.32;;;;;;;19.38;100.00;96528.25;4969875;28;20038;-74
2022/08/20 01:57:25;;;;;;;13.23;9.73;;;;;;;19.39;100.00;96538.78;4971551;28;20046;-74
2022/08/20 01:59:51;;;;;;;14.40;9.35;;;;;;;19.40;100.00;96532.25;4970741;28;20259;-74
2022/08/20 02:02:17;;;;;;;14.25;10.60;;;;;;;19.34;100.00;96530.75;4968885;28;20043;-74
2022/08/20 02:04:43;;;;;;;11.65;9.18;;;;;;;19.38;100.00;96531.75;4970666;28;20144;-74
2022/08/20 02:07:17;;;;;;;13.55;9.48;;;;;;;19.30;100.00;96527.03;4974029;28;20410;-74
2022/08/20 02:09:44;;;;;;;15.70;9.77;;;;;;;19.37;100.00;96532.03;4970707;28;21309;-74
2022/08/20 02:12:13;;;;;;;13.35;9.82;;;;;;;19.39;100.00;96532.56;4969103;28;20034;-74
2022/08/20 02:14:45;;;;;;;12.98;9.60;;;;;;;19.46;100.00;96532.97;4971744;28;20072;-74
2022/08/20 02:17:12;;;;;;;13.50;9.95;;;;;;;19.39;100.00;96535.28;4971688;28;20082;-74
2022/08/20 02:19:42;;;;;;;14.30;10.65;;;;;;;19.34;100.00;96533.44;4986188;28;20041;-74
2022/08/20 02:22:34;;;;;;;12.50;9.83;;;;;;;19.37;100.00;96537.47;4969674;28;20042;-74
2022/08/20 02:25:00;;;;;;;12.15;9.40;;;;;;;19.39;100.00;96533.34;4970567;28;20274;-74
2022/08/20 02:27:26;;;;;;;15.57;9.43;;;;;;;19.34;100.00;96533.44;4971002;28;20061;-74
2022/08/20 02:29:52;;;;;;;11.00;8.98;;;;;;;19.21;100.00;96543.19;4969237;28;20043;-74
2022/08/20 02:32:19;;;;;;;10.45;8.68;;;;;;;19.14;100.00;96540.09;4971356;28;20038;-74
2022/08/20 02:34:45;;;;;;;11.02;9.02;;;;;;;19.08;100.00;96546.72;4972551;28;20130;-74
2022/08/20 02:37:15;;;;;;;10.98;8.82;;;;;;;19.02;100.00;96541.69;4969666;28;20042;-74
2022/08/20 02:39:41;;;;;;;11.90;9.32;;;;;;;19.05;100.00;96550.03;4983945;28;20132;-74
2022/08/20 02:42:08;;;;;;;11.40;8.80;;;;;;;19.07;100.00;96537.00;4968917;28;20564;-74
2022/08/20 02:44:34;;;;;;;10.55;9.00;;;;;;;19.06;100.00;96546.19;4969862;28;20074;-74
2022/08/20 02:47:01;;;;;;;13.45;9.88;;;;;;;19.00;100.00;96546.63;4965880;28;20133;-74
2022/08/20 02:49:27;;;;;;;11.77;9.27;;;;;;;19.02;100.00;96547.13;4969922;28;20460;-74
2022/08/20 02:51:53;;;;;;;14.73;10.65;;;;;;;18.80;100.00;96539.66;4968772;28;20062;-74
2022/08/20 02:54:18;;;;;;;13.82;10.32;;;;;;;18.86;100.00;96546.59;4969981;28;20387;-74
2022/08/20 02:56:44;;;;;;;16.15;11.25;;;;;;;18.70;100.00;96553.41;4967851;28;20072;-74
2022/08/20 02:59:09;;;;;;;13.90;11.10;;;;;;;18.58;100.00;96554.63;4969875;28;20035;-74
2022/08/20 03:01:35;;;;;;;18.10;12.45;;;;;;;18.61;100.00;96551.34;4968880;28;20406;-74
2022/08/20 03:04:02;;;;;;;18.10;12.85;;;;;;;18.59;100.00;96553.53;4970267;28;20197;-74
2022/08/20 03:06:30;;;;;;;17.77;12.43;;;;;;;18.59;100.00;96542.69;4970219;28;20046;-74
2022/08/20 03:08:56;;;;;;;18.77;12.63;;;;;;;18.50;100.00;96551.78;4969487;28;20043;-74
2022/08/20 03:11:21;;;;;;;17.55;12.38;;;;;;;18.58;100.00;96548.41;4968701;28;20274;-74
2022/08/20 03:13:47;;;;;;;19.30;13.35;;;;;;;18.62;100.00;96538.59;4967143;28;20069;-74
2022/08/20 03:16:13;;;;;;;19.98;12.75;;;;;;;18.64;100.00;96545.31;4971242;28;20096;-74
2022/08/20 03:18:44;;;;;;;17.90;13.25;;;;;;;18.61;100.00;96542.41;4967864;28;20050;-75
2022/08/20 03:21:11;;;;;;;18.38;13.63;;;;;;;18.54;100.00;96542.00;4967898;28;20085;-74
2022/08/20 03:23:39;;;;;;;21.48;13.63;;;;;;;18.54;100.00;96537.38;4971460;28;20570;-74
2022/08/20 03:26:06;;;;;;;20.20;14.27;;;;;;;18.42;100.00;96541.63;4967420;28;20042;-74
2022/08/20 03:28:32;;;;;;;16.30;13.48;;;;;;;18.47;100.00;96538.84;4970491;28;20061;-74
2022/08/20 03:30:58;;;;;;;18.38;14.32;;;;;;;18.52;100.00;96541.47;4967547;28;20050;-74
2022/08/20 03:33:26;;;;;;;16.70;13.40;;;;;;;18.50;100.00;96536.34;4970662;28;20497;-74
2022/08/20 03:35:51;;;;;;;17.73;13.27;;;;;;;18.52;100.00;96536.88;4968566;28;20447;-74
2022/08/20 03:38:19;;;;;;;18.70;13.57;;;;;;;18.60;100.00;96538.09;4966746;28;20073;-74
2022/08/20 03:40:44;;;;;;;19.20;14.18;;;;;;;18.58;100.00;96541.06;4970142;28;20046;-74
2022/08/20 03:43:10;;;;;;;19.35;14.27;;;;;;;18.58;100.00;96537.56;4968065;28;20547;-74
2022/08/20 03:45:38;;;;;;;19.33;14.98;;;;;;;18.64;100.00;96548.03;4965397;28;20373;-74
2022/08/20 03:48:06;;;;;;;18.73;14.07;;;;;;;18.62;100.00;96544.81;4968202;28;20133;-74
2022/08/20 03:50:32;;;;;;;18.08;14.43;;;;;;;18.54;100.00;96558.25;4971512;28;20038;-74
2022/08/20 03:52:59;;;;;;;20.23;14.70;;;;;;;18.53;100.00;96549.31;4968231;28;20632;-74
2022/08/20 03:55:27;;;;;;;18.40;14.63;;;;;;;18.56;100.00;96553.31;4966918;28;20334;-74
2022/08/20 03:57:56;;;;;;;18.30;13.88;;;;;;;18.58;100.00;96553.81;4967980;28;20361;-74
2022/08/20 04:00:25;;;;;;;18.92;14.10;;;;;;;18.61;100.00;96572.22;4971287;28;20157;-73
2022/08/20 04:02:51;;;;;;;22.05;14.13;;;;;;;18.58;100.00;96572.78;4966724;28;20396;-73
2022/08/20 04:05:17;;;;;;;20.40;14.38;;;;;;;18.40;100.00;96571.75;4967464;28;20046;-74
2022/08/20 04:07:43;;;;;;;18.85;14.07;;;;;;;18.44;100.00;96561.91;4968023;28;20498;-74
2022/08/20 04:10:10;;;;;;;18.27;13.82;;;;;;;18.56;100.00;96564.97;4969854;28;20118;-74
2022/08/20 04:12:40;;;;;;;18.52;13.15;;;;;;;18.48;100.00;96568.34;4969794;28;20045;-74
2022/08/20 04:15:15;;;;;;;17.33;13.38;;;;;;;18.51;100.00;96559.63;4969161;28;20121;-74
2022/08/20 04:17:44;;;;;;;15.27;12.65;;;;;;;18.53;100.00;96565.56;4967232;28;20053;-74
2022/08/20 04:20:12;;;;;;;16.02;11.70;;;;;;;18.47;100.00;96571.38;4967159;28;20035;-74
2022/08/20 04:22:39;;;;;;;14.82;11.63;;;;;;;18.46;100.00;96567.84;4968705;28;20050;-74
2022/08/20 04:25:07;;;;;;;13.82;11.90;;;;;;;18.28;100.00;96569.47;4968587;28;20149;-74
2022/08/20 04:27:35;;;;;;;14.65;11.45;;;;;;;18.34;100.00;96573.72;4965946;28;20346;-74
2022/08/20 04:30:07;;;;;;;15.02;12.18;;;;;;;18.49;100.00;96574.56;4966186;28;20709;-74
2022/08/20 04:32:35;;;;;;;15.13;11.80;;;;;;;18.51;100.00;96567.75;4967321;28;20552;-74
2022/08/20 04:35:06;;;;;;;15.63;11.30;;;;;;;18.56;100.00;96570.38;4968552;28;20061;-74
2022/08/20 04:37:32;;;;;;;16.33;11.68;;;;;;;18.60;100.00;96570.63;4967693;28;20046;-74
2022/08/20 04:42:47;;;;;;;14.75;12.05;;;;;;;18.64;100.00;96577.84;4968226;28;20042;-74
2022/08/20 04:45:13;;;;;;;16.08;11.95;;;;;;;18.68;100.00;96569.97;4967403;28;20085;-74
2022/08/20 04:47:40;;;;;;;14.27;11.43;;;;;;;18.71;100.00;96571.25;4968320;28;20486;-74
2022/08/20 04:50:08;;;;;;;15.38;11.80;;;;;;;18.75;100.00;96572.25;4968331;28;20260;-74
2022/08/20 04:52:34;;;;;;;18.63;12.07;;;;;;;18.74;100.00;96576.06;4968588;28;20042;-74
2022/08/20 04:55:00;;;;;;;17.48;12.65;;;;;;;18.78;100.00;96572.50;4971561;28;20166;-74
2022/08/20 04:57:26;;;;;;;15.10;12.30;;;;;;;18.82;100.00;96578.09;4967145;28;20125;-74
2022/08/20 04:59:52;;;;;;;15.32;11.98;;;;;;;18.79;100.00;96573.28;4968586;28;20042;-74
2022/08/20 05:02:19;;;;;;;18.42;13.02;;;;;;;18.81;100.00;96576.50;4964996;28;20046;-74
2022/08/20 05:04:46;;;;;;;15.65;12.20;;;;;;;18.84;100.00;96581.34;4967452;28;20339;-74
2022/08/20 05:07:13;;;;;;;15.18;11.73;;;;;;;18.84;100.00;96579.44;4967756;28;20129;-73
2022/08/20 05:09:40;;;;;;;14.07;11.80;;;;;;;18.79;100.00;96576.00;4969510;28;20478;-74
2022/08/20 05:12:06;;;;;;;15.15;11.57;;;;;;;18.80;100.00;96588.44;4980902;28;20326;-74
2022/08/20 05:14:32;;;;;;;12.55;10.85;;;;;;;18.72;100.00;96589.13;4967983;28;20041;-74
2022/08/20 05:17:03;;;;;;;13.10;10.82;;;;;;;18.72;100.00;96597.25;4965490;28;20130;-74
2022/08/20 05:19:29;;;;;;;14.57;11.60;;;;;;;18.73;100.00;96596.97;4970708;28;20354;-74
2022/08/20 05:21:55;;;;;;;14.88;11.60;;;;;;;18.69;100.00;96597.88;4966662;28;20405;-74
2022/08/20 05:24:20;;;;;;;17.48;12.07;;;;;;;18.63;100.00;96592.50;4968144;28;20065;-74
2022/08/20 05:26:46;;;;;;;15.15;12.25;;;;;;;18.60;100.00;96597.72;4971093;28;20096;-74
2022/08/20 05:29:12;;;;;;;13.98;11.75;;;;;;;18.51;100.00;96597.56;4972201;28;20140;-74
2022/08/20 05:31:38;;;;;;;16.08;12.18;;;;;;;18.51;100.00;96602.97;4970509;28;20303;-74
2022/08/20 05:34:08;;;;;;;16.13;12.20;;;;;;;18.54;100.00;96596.19;4972355;28;20042;-74
2022/08/20 05:36:34;;;;;;;15.52;12.10;;;;;;;18.65;100.00;96605.75;4970912;28;20046;-73
2022/08/20 05:39:00;;;;;;;15.60;11.90;;;;;;;18.74;100.00;96603.19;4972614;28;20411;-74
2022/08/20 05:41:28;;;;;;;16.13;12.52;;;;;;;18.82;100.00;96606.00;4972007;28;20111;-74
2022/08/20 05:43:53;;;;;;;15.23;11.98;;;;;;;19.07;100.00;96595.84;4973311;28;20031;-74
2022/08/20 05:46:18;;;;;;;20.55;12.40;;;;;;;19.33;100.00;96593.44;4968206;28;20168;-74
2022/08/20 05:48:44;;;;;;;15.23;12.32;;;;;;;19.50;100.00;96599.06;4970508;28;20038;-74
2022/08/20 05:51:12;;;;;;;14.55;12.20;;;;;;;19.57;100.00;96594.06;4971579;28;20034;-74
2022/08/20 05:53:37;;;;;;;15.02;12.05;;;;;;;19.57;100.00;96594.06;4959928;28;20069;-74
2022/08/20 05:56:03;;;;;;;14.68;11.88;;;;;;;19.59;100.00;96600.00;4971022;28;20038;-74
2022/08/20 05:58:31;;;;;;;17.95;12.75;;;;;;;19.73;100.00;96598.06;4970780;28;20656;-74
2022/08/20 06:00:57;;;;;;;16.10;12.85;;;;;;;19.86;100.00;96596.47;4969084;28;20073;-74
2022/08/20 06:06:08;;;;;;;15.93;11.55;;;;;;;20.01;100.00;96596.13;4971304;28;20529;-74
2022/08/20 06:08:35;;;;;;;13.52;10.93;;;;;;;20.07;100.00;96591.38;4973442;28;20473;-74
2022/08/20 06:11:00;;;;;;;13.68;11.57;;;;;;;20.10;100.00;96596.22;4970187;28;20195;-74
2022/08/20 06:13:27;;;;;;;13.50;11.30;;;;;;;20.07;100.00;96596.00;4969946;28;20525;-74
2022/08/20 06:15:54;;;;;;;12.45;10.10;;;;;;;20.01;100.00;96604.28;4971597;28;20042;-74
2022/08/20 06:18:20;;;;;;;13.45;9.82;;;;;;;19.98;100.00;96604.88;4968196;28;20482;-74
2022/08/20 06:20:45;;;;;;;10.90;9.40;;;;;;;19.95;100.00;96599.25;4974047;28;20034;-73
2022/08/20 06:23:12;;;;;;;10.65;8.82;;;;;;;19.94;100.00;96600.38;4969252;28;20034;-74
2022/08/20 06:25:38;;;;;;;10.02;7.93;;;;;;;19.97;100.00;96605.97;4967559;28;20054;-74
2022/08/20 06:28:04;;;;;;;10.98;9.00;;;;;;;19.97;100.00;96599.75;4968713;28;20356;-73
2022/08/20 06:30:30;;;;;;;9.95;8.70;;;;;;;20.07;100.00;96604.16;4971480;28;20061;-74
2022/08/20 06:32:56;;;;;;;9.10;7.38;;;;;;;19.93;100.00;96602.28;4970500;28;20061;-74
2022/08/20 06:35:22;;;;;;;9.57;8.00;;;;;;;20.05;100.00;96604.47;4970622;28;20169;-73
2022/08/20 06:37:49;;;;;;;9.80;7.85;;;;;;;20.04;100.00;96597.41;4969173;28;20203;-74
2022/08/20 06:40:18;;;;;;;7.93;6.47;;;;;;;19.99;100.00;96595.59;4982985;28;20046;-74
2022/08/20 06:42:44;;;;;;;8.50;7.07;;;;;;;19.85;100.00;96602.19;4973003;28;20161;-73
2022/08/20 06:45:12;;;;;;;10.15;6.88;;;;;;;19.72;100.00;96601.09;4971967;28;20418;-74
2022/08/20 06:47:40;;;;;;;8.02;6.53;;;;;;;19.60;100.00;96598.09;4969670;28;20035;-74
2022/08/20 06:50:08;;;;;;;9.43;6.28;;;;;;;19.59;100.00;96602.72;4971467;28;20043;-73
2022/08/20 06:52:38;;;;;;;7.47;5.35;;;;;;;19.49;100.00;96600.19;4970453;28;20038;-74
2022/08/20 06:55:04;;;;;;;8.30;5.72;;;;;;;19.41;100.00;96600.88;4971244;28;20053;-73
2022/08/20 06:57:29;;;;;;;6.63;4.53;;;;;;;19.39;100.00;96605.81;4983011;28;20050;-73
2022/08/20 06:59:55;;;;;;;8.55;5.28;;;;;;;19.49;100.00;96592.84;4970308;28;20096;-74
2022/08/20 07:02:23;;;;;;;8.57;6.13;;;;;;;19.57;100.00;96594.06;4968036;28;20258;-74
2022/08/20 07:04:48;;;;;;;12.43;8.55;;;;;;;19.88;100.00;96598.88;4971919;28;20062;-74
2022/08/20 07:07:16;;;;;;;11.18;6.40;;;;;;;20.12;100.00;96596.69;4951846;28;20206;-74
2022/08/20 07:09:42;;;;;;;12.00;8.00;;;;;;;20.18;100.00;96598.19;4970580;28;20841;-74
2022/08/20 07:12:09;;;;;;;13.02;7.32;;;;;;;19.97;100.00;96605.19;4982113;28;20053;-74
2022/08/20 07:14:35;;;;;;;18.88;9.63;;;;;;;19.82;100.00;96608.22;4970497;28;20046;-73
2022/08/20 07:17:05;;;;;;;32.13;15.52;;;;;;;19.65;100.00;96620.50;4971463;28;20113;-73
2022/08/20 07:19:32;;;;;;;18.73;10.23;;;;;;;19.47;100.00;96621.38;4969604;28;20042;-74
2022/08/20 07:21:58;;;;;;;9.32;4.53;;;;;;;19.41;100.00;96614.44;4968417;28;20030;-74
2022/08/20 07:24:23;;;;;;;8.25;4.50;;;;;;;19.48;100.00;96617.56;4968822;28;20090;-74
2022/08/20 07:26:50;;;;;;;8.85;5.55;;;;;;;19.57;100.00;96623.13;4967491;28;20131;-74
2022/08/20 07:29:17;;;;;;;8.80;6.30;;;;;;;19.54;100.00;96619.09;4967664;28;20042;-74
2022/08/20 07:34:27;;;;;;;7.18;5.10;;;;;;;19.67;100.00;96623.72;4969630;28;20117;-74
2022/08/20 07:36:52;;;;;;;6.30;4.47;;;;;;;19.70;100.00;96625.03;4969711;28;20331;-74
2022/08/20 07:39:18;;;;;;;9.35;4.75;;;;;;;19.68;100.00;96622.59;4969213;28;20424;-74
2022/08/20 07:41:43;;;;;;;6.05;3.20;;;;;;;19.64;100.00;96628.97;4983967;28;20089;-74
2022/08/20 07:44:08;;;;;;;5.28;3.50;;;;;;;19.49;100.00;96632.75;4971730;28;20113;-74
2022/08/20 07:46:34;;;;;;;5.82;3.72;;;;;;;19.40;100.00;96624.50;4969198;28;20163;-74
2022/08/20 07:48:59;;;;;;;4.97;3.58;;;;;;;19.38;100.00;96634.06;4970709;28;20236;-74
2022/08/20 07:51:26;;;;;;;7.57;4.53;;;;;;;19.45;100.00;96629.84;4971920;28;20453;-74
2022/08/20 07:53:52;;;;;;;9.35;6.80;;;;;;;19.45;100.00;96645.28;4971671;28;20037;-74
2022/08/20 07:56:22;;;;;;;10.48;7.22;;;;;;;19.30;100.00;96627.41;4970803;28;20038;-74
2022/08/20 07:58:50;;;;;;;;;;;;;;;19.27;100.00;96643.47;4967080;28;20618;-74
2022/08/20 08:01:18;;;;;;;14.40;8.38;;;;;;;19.41;100.00;96638.88;4969495;28;20032;-74
2022/08/20 08:03:44;;;;;;;11.57;8.75;;;;;;;19.47;100.00;96634.97;4968560;28;20082;-74
2022/08/20 08:06:11;;;;;;;13.85;9.45;;;;;;;19.32;100.00;96640.69;4959308;28;20703;-74
2022/08/20 08:08:39;;;;;;;13.52;9.50;;;;;;;19.32;100.00;96638.75;4973861;28;20046;-74
2022/08/20 08:11:05;;;;;;;12.82;9.38;;;;;;;19.33;100.00;96637.66;4937992;28;20137;-74
2022/08/20 08:13:38;;;;;;;14.13;9.52;;;;;;;19.46;100.00;96647.72;4966568;28;20154;-74
2022/08/20 08:16:05;;;;;;;13.90;10.55;;;;;;;19.29;100.00;96643.97;4968444;28;20073;-74
2022/08/20 08:18:55;;;;;;;20.65;12.45;;;;;;;19.05;100.00;96641.41;4967907;28;20137;-74
2022/08/20 08:21:22;;;;;;;17.25;11.73;;;;;;;18.93;100.00;96644.63;4966747;28;20045;-75
2022/08/20 08:23:49;;;;;;;14.43;11.23;;;;;;;18.97;100.00;96648.31;4982640;28;20050;-74
2022/08/20 08:26:16;;;;;;;13.52;11.38;;;;;;;19.01;100.00;96643.13;4970575;28;20042;-75
2022/08/20 08:28:44;;;;;;;11.95;9.23;;;;;;;19.24;100.00;96638.66;4970703;28;20038;-74
2022/08/20 08:31:10;;;;;;;13.48;8.63;;;;;;;19.20;100.00;96662.84;4967702;28;20042;-74
2022/08/20 08:33:37;;;;;;;13.32;10.07;;;;;;;19.06;100.00;96656.59;4967710;28;20050;-74
2022/08/20 08:36:09;;;;;;;11.45;8.18;;;;;;;19.13;100.00;96659.72;4967332;28;20135;-74
2022/08/20 08:38:39;;;;;;;13.10;8.93;;;;;;;19.31;100.00;96658.06;4970630;28;20526;-74
2022/08/20 08:41:32;;;;;;;14.13;8.97;;;;;;;19.47;100.00;96648.53;4968177;28;20549;-74
2022/08/20 08:44:05;;;;;;;11.05;7.90;;;;;;;20.03;100.00;96655.56;4968782;28;20289;-74
2022/08/20 08:46:34;;;;;;;10.52;7.80;;;;;;;20.90;100.00;96645.44;4971592;28;20112;-74
2022/08/20 08:49:02;;;;;;;10.98;7.80;;;;;;;21.24;100.00;96656.53;4964507;28;20037;-74
2022/08/20 08:51:38;;;;;;;11.15;7.80;;;;;;;21.17;100.00;96650.75;4968056;28;20053;-74
2022/08/20 08:54:06;;;;;;;12.30;7.40;;;;;;;21.48;100.00;96647.22;4969086;28;20042;-74
2022/08/20 08:56:33;;;;;;;11.27;8.23;;;;;;;21.73;100.00;96648.47;4969138;28;20089;-74
2022/08/20 08:59:03;;;;;;;10.48;7.72;;;;;;;21.65;100.00;96650.84;4968683;28;20046;-74
2022/08/20 09:01:32;;;;;;;13.07;7.85;;;;;;;21.22;100.00;96647.88;4968521;28;20051;-74
2022/08/20 09:03:58;;;;;;;11.57;7.75;;;;;;;21.10;100.00;96656.63;4968171;28;20053;-74
2022/08/20 09:06:25;;;;;;;10.07;7.82;;;;;;;20.98;100.00;96659.09;4968794;28;20073;-74
2022/08/20 09:08:59;;;;;;;11.93;8.07;;;;;;;21.06;100.00;96663.78;4967847;28;20118;-74
2022/08/20 09:11:26;;;;;;;12.57;7.60;;;;;;;21.13;100.00;96663.38;4937776;28;20572;-74
2022/08/20 09:13:53;;;;;;;10.00;6.75;;;;;;;21.17;100.00;96667.09;4969909;28;20070;-74
2022/08/20 09:16:19;;;;;;;9.65;7.30;;;;;;;21.42;100.00;96666.44;4965776;28;20525;-74
2022/08/20 09:18:44;;;;;;;10.65;7.20;;;;;;;21.44;100.00;96657.97;4964496;28;20110;-75
2022/08/20 09:21:10;;;;;;;9.40;7.07;;;;;;;21.65;100.00;96660.94;4968796;28;20053;-74
2022/08/20 09:23:36;;;;;;;10.45;6.47;;;;;;;21.57;100.00;96659.78;4968707;28;20468;-74
2022/08/20 09:26:02;;;;;;;11.45;7.05;;;;;;;21.46;100.00;96652.19;4971018;28;20914;-74
2022/08/20 09:28:27;;;;;;;10.25;7.20;;;;;;;21.83;100.00;96668.03;4964391;28;20042;-75
2022/08/20 09:30:53;;;;;;;8.55;6.30;;;;;;;22.42;100.00;96654.91;4964688;28;20054;-74
2022/08/20 09:33:19;;;;;;;9.57;6.25;;;;;;;22.67;100.00;96652.50;4966484;28;20115;-74
2022/08/20 09:35:45;;;;;;;9.20;6.38;;;;;;;22.74;100.00;96650.09;4967358;28;20046;-74
2022/08/20 09:38:11;;;;;;;11.43;7.68;;;;;;;22.13;100.00;96651.97;4964492;28;20172;-75
2022/08/20 09:40:37;;;;;;;11.60;7.50;;;;;;;22.65;100.00;96652.81;4968203;28;20129;-75
2022/08/20 09:43:07;;;;;;;9.50;6.72;;;;;;;22.47;100.00;96665.63;4982231;28;20648;-74
2022/08/20 09:45:33;;;;;;;12.13;7.70;;;;;;;23.10;100.00;96657.91;4967341;28;20117;-75
2022/08/20 09:47:58;;;;;;;11.48;7.07;;;;;;;23.11;100.00;96650.53;4968852;28;20042;-75
2022/08/20 09:50:29;;;;;;;9.82;6.28;;;;;;;23.05;100.00;96649.91;4967317;28;20342;-75
2022/08/20 09:52:56;;;;;;;;;;;;;;;23.16;100.00;96644.91;4965281;28;20045;-75
2022/08/20 09:55:54;;;;;;;9.27;6.45;;;;;;;23.51;100.00;96651.88;4964750;28;19914;-75
2022/08/20 09:58:25;;;;;;;9.02;6.65;;;;;;;23.78;100.00;96647.13;4953711;28;20061;-75
2022/08/20 10:00:51;;;;;;;11.20;6.88;;;;;;;23.22;100.00;96652.59;4966249;28;20678;-74
2022/08/20 10:03:17;;;;;;;10.82;6.47;;;;;;;23.97;100.00;96650.25;4966628;28;20062;-75
2022/08/20 10:05:43;;;;;;;10.75;6.38;;;;;;;24.30;100.00;96647.63;4967548;28;20038;-74
2022/08/20 10:08:10;;;;;;;12.82;6.68;;;;;;;23.77;100.00;96646.34;4968169;28;20061;-75
2022/08/20 10:10:36;;;;;;;10.07;6.03;;;;;;;23.41;100.00;96644.03;4968081;28;20572;-74
2022/08/20 10:13:01;;;;;;;8.32;5.57;;;;;;;23.90;100.00;96644.50;4967063;28;20171;-75
2022/08/20 10:15:28;;;;;;;8.77;5.25;;;;;;;24.80;100.00;96651.44;4972342;28;20053;-75
2022/08/20 10:17:55;;;;;;;9.57;5.72;;;;;;;25.14;100.00;96642.16;4971653;28;20502;-75
2022/08/20 10:20:22;;;;;;;8.18;5.90;;;;;;;24.09;100.00;96647.59;4952942;28;20045;-75
2022/08/20 10:22:48;;;;;;;8.43;6.10;;;;;;;23.67;100.00;96654.91;4969311;28;20515;-75
2022/08/20 10:25:15;;;;;;;8.57;5.63;;;;;;;24.30;100.00;96652.31;4968877;28;20043;-75
2022/08/20 10:27:41;;;;;;;8.20;5.70;;;;;;;25.23;98.20;96643.66;4971392;28;20053;-74
2022/08/20 10:30:07;;;;;;;8.68;5.97;;;;;;;25.30;96.03;96636.84;4968946;28;20429;-75
2022/08/20 10:32:32;;;;;;;7.63;5.50;;;;;;;25.24;97.62;96650.72;4968466;28;20042;-75
2022/08/20 10:34:57;;;;;;;6.93;5.35;;;;;;;25.17;97.25;96641.47;4969096;28;20050;-75
2022/08/20 10:37:24;;;;;;;10.02;5.15;;;;;;;25.65;93.40;96639.97;4969360;28;20303;-75
2022/08/20 10:39:50;;;;;;;6.68;4.63;;;;;;;25.29;91.23;96649.69;4970162;28;20070;-75
2022/08/20 10:42:15;;;;;;;8.40;5.60;;;;;;;25.32;91.44;96645.50;4970265;28;20744;-74
2022/08/20 10:44:41;;;;;;;8.93;5.68;;;;;;;26.15;86.90;96647.88;4972299;28;20042;-75
2022/08/20 10:47:20;;;;;;;9.57;5.65;;;;;;;25.61;87.97;96639.84;4969109;28;20845;-75
2022/08/20 10:49:48;;;;;;;9.13;6.57;;;;;;;25.16;92.21;96653.56;4967734;28;20046;-75
2022/08/20 10:52:13;;;;;;;9.55;6.28;;;;;;;25.91;88.51;96642.38;4969602;28;20120;-74
2022/08/20 10:54:40;;;;;;;10.25;5.18;;;;;;;27.22;81.53;96642.78;4969877;28;20352;-75
2022/08/20 10:57:14;;;;;;;6.80;4.70;;;;;;;27.86;74.22;96643.63;4956527;28;20050;-75
2022/08/20 10:59:42;;;;;;;7.22;4.82;;;;;;;29.52;65.21;96631.06;4971256;28;20743;-75
2022/08/20 11:02:07;;;;;;;6.72;5.18;;;;;;;29.42;61.68;96638.75;4967853;28;20125;-75
2022/08/20 11:04:34;;;;;;;6.32;4.60;;;;;;;28.04;70.05;96637.41;4970036;28;20242;-75
2022/08/20 11:07:13;;;;;;;5.93;4.47;;;;;;;29.85;55.22;96646.97;4967353;28;20625;-75
2022/08/20 11:09:38;;;;;;;5.80;4.65;;;;;;;33.08;43.46;96632.16;4968447;28;20070;-75
2022/08/20 11:12:04;;;;;;;7.28;4.97;;;;;;;31.02;47.29;96639.59;4939824;28;20221;-75
2022/08/20 11:14:30;;;;;;;7.30;3.88;;;;;;;33.14;40.33;96638.09;4971366;28;20528;-75
2022/08/20 11:16:55;;;;;;;8.40;4.38;;;;;;;31.17;42.47;96641.34;4969646;28;20053;-75
2022/08/20 11:19:21;;;;;;;6.53;3.92;;;;;;;31.43;42.76;96642.44;4968748;28;20057;-75
2022/08/20 11:21:46;;;;;;;6.70;4.40;;;;;;;31.37;45.48;96638.44;4969066;28;20039;-75
2022/08/20 11:24:12;;;;;;;5.53;4.10;;;;;;;34.67;36.11;96631.84;4970786;28;20341;-75
2022/08/20 11:26:37;;;;;;;5.05;4.05;;;;;;;33.85;35.55;96635.44;4966719;28;20326;-75
2022/08/20 11:29:03;;;;;;;5.30;3.55;;;;;;;32.63;37.84;96631.53;4968425;28;20383;-75
2022/08/20 11:31:29;;;;;;;4.30;3.45;;;;;;;32.16;38.98;96641.53;4968672;28;20418;-75